Station History

Weather Underground - logo

Station Historical Data
Daily Summary for July 18, 2017 Units:  English    Metric   Both
« Previous Day
Next Day »
Daily Weekly Monthly Yearly Custom
  High: Low: Average:
Temperature: TemperatureF °F 66.3 °F 84 °F
Dew Point: DewpointF °F 50.8 °F 56.5 °F
Humidity: Humidity % 19 % 42 %
Wind Speed: WindSpeedMPH mph 0.0 mph 1.7 mph
Wind Gust: WindSpeedGustMPH mph - -
Wind:- - SW
Pressure: PressureIn in 29.75 in -
Precipitation: 0.00 in    
Historical Graphs
 
 
Tabular Data for July 18, 2017
Time Temperature Dew Point Pressure Wind Wind Speed Wind Gust Humidity Rainfall Rate (Hourly)
TemperatureF °F DewpointF °F PressureIn in Calm     Humidity % HourlyPrecipIn in
00:01 82.7 °F 54.5 °F 29.75 in Calm     38 % 0.00 in
00:06 82.5 °F 54.3 °F 29.75 in NW 1.2 mph 1.2 mph 38 % 0.00 in
00:11 82.4 °F 54.2 °F 29.76 in NW 1.2 mph 1.2 mph 38 % 0.00 in
00:16 82.2 °F 54.1 °F 29.76 in NW 1.2 mph 1.2 mph 38 % 0.00 in
00:21 82.0 °F 53.9 °F 29.76 in Calm     38 % 0.00 in
00:26 81.9 °F 54.5 °F 29.76 in Calm     39 % 0.00 in
00:31 81.5 °F 55.5 °F 29.76 in Calm     41 % 0.00 in
00:36 80.8 °F 54.2 °F 29.76 in Calm     40 % 0.00 in
00:41 80.0 °F 55.5 °F 29.76 in Calm     43 % 0.00 in
00:46 78.8 °F 56.3 °F 29.76 in Calm     46 % 0.00 in
00:51 77.4 °F 56.7 °F 29.76 in Calm     49 % 0.00 in
00:56 76.2 °F 56.2 °F 29.77 in Calm     50 % 0.00 in
01:01 75.8 °F 56.4 °F 29.77 in Calm     51 % 0.00 in
01:07 75.6 °F 57.3 °F 29.76 in Calm     53 % 0.00 in
01:12 75.5 °F 56.1 °F 29.76 in Calm     51 % 0.00 in
01:17 75.6 °F 57.3 °F 29.76 in Calm     53 % 0.00 in
01:22 75.3 °F 57.5 °F 29.77 in Calm     54 % 0.00 in
01:27 75.0 °F 57.7 °F 29.77 in Calm     55 % 0.00 in
01:32 74.4 °F 57.7 °F 29.77 in Calm     56 % 0.00 in
01:37 73.9 °F 57.2 °F 29.77 in Calm     56 % 0.00 in
01:42 73.9 °F 57.2 °F 29.77 in Calm     56 % 0.00 in
01:47 74.0 °F 56.8 °F 29.77 in Calm     55 % 0.00 in
01:52 73.8 °F 58.1 °F 29.77 in Calm     58 % 0.00 in
01:57 73.3 °F 57.6 °F 29.77 in Calm     58 % 0.00 in
02:02 72.6 °F 57.9 °F 29.77 in SW 1.2 mph   60 % 0.00 in
02:03 72.4 °F 58.2 °F 29.77 in Calm     61 % 0.00 in
02:08 71.8 °F 58.5 °F 29.77 in Calm     63 % 0.00 in
02:13 71.5 °F 58.7 °F 29.77 in Calm     64 % 0.00 in
02:18 71.3 °F 58.5 °F 29.77 in Calm     64 % 0.00 in
02:23 71.4 °F 58.6 °F 29.77 in Calm     64 % 0.00 in
02:28 71.7 °F 57.5 °F 29.77 in SE 1.2 mph   61 % 0.00 in
02:34 71.9 °F 57.3 °F 29.77 in Calm     60 % 0.00 in
02:39 71.9 °F 56.8 °F 29.77 in Calm     59 % 0.00 in
02:44 72.2 °F 56.6 °F 29.77 in Calm     58 % 0.00 in
02:45 72.2 °F 56.1 °F 29.77 in ESE 1.2 mph 1.2 mph 57 % 0.00 in
02:50 72.4 °F 57.7 °F 29.77 in Calm     60 % 0.00 in
02:55 72.1 °F 57.4 °F 29.77 in Calm     60 % 0.00 in
03:00 71.6 °F 57.4 °F 29.77 in Calm     61 % 0.00 in
03:05 71.2 °F 56.6 °F 29.78 in Calm     60 % 0.00 in
03:10 70.8 °F 56.2 °F 29.77 in Calm     60 % 0.00 in
03:15 70.5 °F 56.9 °F 29.78 in Calm     62 % 0.00 in
03:20 70.2 °F 56.6 °F 29.78 in Calm     62 % 0.00 in
03:25 70.1 °F 56.9 °F 29.78 in Calm     63 % 0.00 in
03:30 69.9 °F 56.3 °F 29.78 in Calm     62 % 0.00 in
03:35 69.9 °F 56.3 °F 29.78 in Calm     62 % 0.00 in
03:40 69.9 °F 56.3 °F 29.78 in Calm     62 % 0.00 in
03:45 69.8 °F 56.6 °F 29.78 in Calm     63 % 0.00 in
03:50 69.5 °F 56.8 °F 29.78 in Calm     64 % 0.00 in
03:55 69.3 °F 56.6 °F 29.79 in Calm     64 % 0.00 in
03:58 69.1 °F 56.8 °F 29.79 in SE 1.2 mph   65 % 0.00 in
04:03 68.4 °F 56.6 °F 29.79 in Calm     66 % 0.00 in
04:08 68.3 °F 56.5 °F 29.79 in SE 1.2 mph 1.2 mph 66 % 0.00 in
04:14 68.5 °F 56.7 °F 29.80 in Calm     66 % 0.00 in
04:19 68.7 °F 57.7 °F 29.80 in Calm     68 % 0.00 in
04:24 68.6 °F 58.4 °F 29.80 in Calm     70 % 0.00 in
04:29 68.3 °F 57.7 °F 29.80 in Calm     69 % 0.00 in
04:34 68.0 °F 57.8 °F 29.80 in Calm     70 % 0.00 in
04:39 67.9 °F 57.8 °F 29.80 in SE 1.2 mph 1.2 mph 70 % 0.00 in
04:44 67.9 °F 57.8 °F 29.81 in Calm     70 % 0.00 in
04:49 67.8 °F 57.7 °F 29.81 in SE 1.2 mph   70 % 0.00 in
04:54 67.8 °F 58.1 °F 29.81 in Calm     71 % 0.00 in
04:59 67.5 °F 57.8 °F 29.81 in Calm     71 % 0.00 in
05:04 67.3 °F 58.0 °F 29.81 in Calm     72 % 0.00 in
05:09 67.4 °F 57.7 °F 29.81 in Calm     71 % 0.00 in
05:14 67.3 °F 57.6 °F 29.82 in Calm     71 % 0.00 in
05:19 67.3 °F 57.6 °F 29.82 in SE 1.2 mph 1.2 mph 71 % 0.00 in
05:24 67.3 °F 58.0 °F 29.82 in Calm     72 % 0.00 in
05:29 67.2 °F 57.9 °F 29.82 in SE 1.2 mph   72 % 0.00 in
05:34 66.9 °F 58.0 °F 29.83 in SE 1.0 mph   73 % 0.00 in
05:39 66.8 °F 57.9 °F 29.83 in Calm     73 % 0.00 in
05:44 66.7 °F 57.8 °F 29.83 in Calm     73 % 0.00 in
05:49 66.6 °F 58.1 °F 29.83 in Calm     74 % 0.00 in
05:54 66.6 °F 57.7 °F 29.83 in Calm     73 % 0.00 in
05:59 66.5 °F 58.0 °F 29.84 in Calm     74 % 0.00 in
06:04 66.3 °F 57.8 °F 29.84 in Calm     74 % 0.00 in
06:09 66.3 °F 57.8 °F 29.84 in Calm     74 % 0.00 in
06:14 66.4 °F 57.5 °F 29.84 in SE 1.2 mph   73 % 0.00 in
06:19 66.4 °F 57.5 °F 29.85 in Calm     73 % 0.00 in
06:24 66.4 °F 57.5 °F 29.85 in Calm     73 % 0.00 in
06:29 66.4 °F 57.5 °F 29.85 in Calm     73 % 0.00 in
06:34 66.6 °F 57.7 °F 29.85 in Calm     73 % 0.00 in
06:39 66.7 °F 57.4 °F 29.85 in SE 1.2 mph 1.2 mph 72 % 0.00 in
06:44 67.1 °F 57.8 °F 29.86 in SE 1.2 mph 1.2 mph 72 % 0.00 in
06:47 67.4 °F 57.7 °F 29.86 in SE 1.2 mph   71 % 0.00 in
06:52 67.8 °F 57.7 °F 29.86 in SE 1.2 mph 1.2 mph 70 % 0.00 in
06:57 68.6 °F 58.0 °F 29.86 in Calm     69 % 0.00 in
07:02 69.9 °F 58.9 °F 29.86 in SE 1.2 mph   68 % 0.00 in
07:07 71.2 °F 59.3 °F 29.86 in Calm     66 % 0.00 in
07:12 72.0 °F 59.2 °F 29.86 in SE 1.2 mph 1.2 mph 64 % 0.00 in
07:18 72.6 °F 59.3 °F 29.87 in ESE 1.2 mph 1.2 mph 63 % 0.00 in
07:23 73.1 °F 58.8 °F 29.87 in SE 1.2 mph 1.2 mph 61 % 0.00 in
07:28 73.6 °F 59.3 °F 29.87 in Calm     61 % 0.00 in
07:33 74.2 °F 58.9 °F 29.87 in SE 1.2 mph 1.2 mph 59 % 0.00 in
07:34 74.3 °F 59.0 °F 29.87 in ESE 1.2 mph 1.2 mph 59 % 0.00 in
07:39 74.4 °F 58.2 °F 29.87 in East 2.3 mph 2.3 mph 57 % 0.00 in
07:44 74.7 °F 58.5 °F 29.87 in SE 1.2 mph 1.2 mph 57 % 0.00 in
07:49 75.3 °F 58.5 °F 29.87 in ESE 2.3 mph 2.3 mph 56 % 0.00 in
07:54 75.7 °F 58.4 °F 29.87 in ESE 2.3 mph 2.3 mph 55 % 0.00 in
07:59 76.2 °F 58.9 °F 29.88 in East 1.2 mph 1.2 mph 55 % 0.00 in
08:04 76.8 °F 58.9 °F 29.88 in East 2.3 mph 2.3 mph 54 % 0.00 in
08:09 77.2 °F 59.3 °F 29.88 in SE 2.3 mph 2.3 mph 54 % 0.00 in
08:14 77.9 °F 59.4 °F 29.88 in SSE 2.3 mph 2.3 mph 53 % 0.00 in
08:19 78.5 °F 58.9 °F 29.88 in SSE 3.5 mph 3.5 mph 51 % 0.00 in
08:25 78.9 °F 58.7 °F 29.88 in ESE 2.3 mph 2.3 mph 50 % 0.00 in
08:26 78.9 °F 58.7 °F 29.88 in East 2.3 mph 2.3 mph 50 % 0.00 in
08:32 79.1 °F 58.9 °F 29.88 in East 2.3 mph 2.3 mph 50 % 0.00 in
08:37 79.6 °F 59.9 °F 29.89 in East 1.2 mph 1.2 mph 51 % 0.00 in
08:42 80.0 °F 58.5 °F 29.89 in ESE 3.5 mph 3.5 mph 48 % 0.00 in
08:47 80.2 °F 59.3 °F 29.89 in East 2.3 mph 2.3 mph 49 % 0.00 in
08:52 80.6 °F 58.5 °F 29.89 in East 2.3 mph 2.3 mph 47 % 0.00 in
08:57 81.2 °F 58.5 °F 29.89 in East 2.3 mph 2.3 mph 46 % 0.00 in
09:02 81.6 °F 58.2 °F 29.89 in SE 3.5 mph 3.5 mph 45 % 0.00 in
09:07 81.8 °F 59.0 °F 29.89 in South 3.0 mph 3.0 mph 46 % 0.00 in
09:12 82.4 °F 58.3 °F 29.89 in SSE 2.3 mph 2.3 mph 44 % 0.00 in
09:17 82.9 °F 57.5 °F 29.89 in SE 3.5 mph 3.5 mph 42 % 0.00 in
09:22 83.3 °F 56.5 °F 29.88 in SSW 3.5 mph 3.5 mph 40 % 0.00 in
09:27 83.6 °F 55.3 °F 29.89 in ESE 4.0 mph 4.0 mph 38 % 0.00 in
09:32 83.9 °F 57.0 °F 29.89 in ENE 2.3 mph 2.3 mph 40 % 0.00 in
09:37 84.3 °F 55.9 °F 29.89 in SE 4.6 mph 4.6 mph 38 % 0.00 in
09:42 84.9 °F 56.5 °F 29.89 in ESE 2.3 mph 2.3 mph 38 % 0.00 in
09:47 85.4 °F 56.9 °F 29.89 in SE 2.3 mph 2.3 mph 38 % 0.00 in
09:52 85.8 °F 56.5 °F 29.89 in SSE 3.5 mph 3.5 mph 37 % 0.00 in
09:57 86.1 °F 56.8 °F 29.89 in NE 1.2 mph 1.2 mph 37 % 0.00 in
10:02 86.2 °F 57.6 °F 29.89 in North 3.5 mph 3.5 mph 38 % 0.00 in
10:07 86.1 °F 57.5 °F 29.89 in SSE 3.5 mph 3.5 mph 38 % 0.00 in
10:12 86.4 °F 58.5 °F 29.89 in NE 3.5 mph 3.5 mph 39 % 0.00 in
10:17 86.7 °F 58.8 °F 29.89 in NNW 3.5 mph 3.5 mph 39 % 0.00 in
10:22 86.1 °F 59.6 °F 29.89 in SSW 2.0 mph 2.0 mph 41 % 0.00 in
10:27 86.5 °F 57.9 °F 29.89 in West 3.0 mph 3.0 mph 38 % 0.00 in
10:32 86.4 °F 58.5 °F 29.89 in NW 2.0 mph 2.0 mph 39 % 0.00 in
10:37 86.7 °F 58.1 °F 29.89 in NW 1.2 mph 1.2 mph 38 % 0.00 in
10:42 87.0 °F 57.6 °F 29.88 in West 3.5 mph 3.5 mph 37 % 0.00 in
10:47 87.3 °F 56.3 °F 29.88 in NW 2.3 mph 2.3 mph 35 % 0.00 in
10:52 87.4 °F 57.9 °F 29.88 in NNE 2.3 mph 2.3 mph 37 % 0.00 in
10:57 87.7 °F 56.7 °F 29.89 in North 3.5 mph 3.5 mph 35 % 0.00 in
11:02 88.2 °F 57.1 °F 29.88 in SW 3.5 mph 3.5 mph 35 % 0.00 in
11:07 88.6 °F 59.0 °F 29.89 in SE 1.2 mph 1.2 mph 37 % 0.00 in
11:12 89.0 °F 58.6 °F 29.89 in SE 4.0 mph 4.0 mph 36 % 0.00 in
11:17 88.8 °F 61.4 °F 29.89 in SE 2.3 mph 2.3 mph 40 % 0.00 in
11:22 89.0 °F 61.5 °F 29.88 in SW 2.3 mph 2.3 mph 40 % 0.00 in
11:27 89.3 °F 61.8 °F 29.88 in South 2.3 mph 2.3 mph 40 % 0.00 in
11:28 89.3 °F 60.4 °F 29.88 in South 3.5 mph 3.5 mph 38 % 0.00 in
11:33 89.8 °F 61.5 °F 29.88 in North 2.0 mph 2.0 mph 39 % 0.00 in
11:38 90.3 °F 61.2 °F 29.88 in SE 2.3 mph 2.3 mph 38 % 0.00 in
11:43 90.4 °F 60.6 °F 29.88 in NE 2.3 mph 2.3 mph 37 % 0.00 in
11:48 90.5 °F 59.1 °F 29.88 in SE 1.2 mph 1.2 mph 35 % 0.00 in
11:49 90.5 °F 59.1 °F 29.89 in NNW 2.0 mph 2.0 mph 35 % 0.00 in
11:54 90.8 °F 58.6 °F 29.88 in NE 1.2 mph 1.2 mph 34 % 0.00 in
11:59 91.1 °F 59.6 °F 29.88 in SSW 2.3 mph 2.3 mph 35 % 0.00 in
12:00 91.1 °F 58.8 °F 29.88 in SE 1.2 mph 1.2 mph 34 % 0.00 in
12:05 91.4 °F 57.4 °F 29.88 in SE 1.2 mph   32 % 0.00 in
12:10 92.0 °F 58.8 °F 29.88 in SSE 1.2 mph 1.2 mph 33 % 0.00 in
12:15 92.4 °F 57.4 °F 29.88 in West 2.3 mph 2.3 mph 31 % 0.00 in
12:20 91.6 °F 58.4 °F 29.88 in SE 3.5 mph 3.5 mph 33 % 0.00 in
12:22 91.7 °F 59.3 °F 29.88 in North 2.3 mph 2.3 mph 34 % 0.00 in
12:27 92.0 °F 59.6 °F 29.88 in Calm     34 % 0.00 in
12:32 92.4 °F 59.1 °F 29.88 in NNW 3.0 mph 3.0 mph 33 % 0.00 in
12:37 92.1 °F 60.5 °F 29.88 in West 2.3 mph 2.3 mph 35 % 0.00 in
12:42 92.5 °F 59.2 °F 29.88 in WNW 2.3 mph 2.3 mph 33 % 0.00 in
12:47 92.7 °F 59.4 °F 29.88 in NNE 1.2 mph 1.2 mph 33 % 0.00 in
12:52 93.5 °F 62.5 °F 29.88 in SE 1.2 mph 1.2 mph 36 % 0.00 in
12:57 94.3 °F 58.1 °F 29.87 in SSW 1.0 mph   30 % 0.00 in
13:02 94.7 °F 59.4 °F 29.87 in NW 1.2 mph 1.2 mph 31 % 0.00 in
13:07 95.1 °F 60.6 °F 29.87 in SE 2.3 mph 2.3 mph 32 % 0.00 in
13:12 95.4 °F 57.1 °F 29.87 in NNE 1.2 mph 1.2 mph 28 % 0.00 in
13:17 95.6 °F 58.3 °F 29.87 in SE 1.2 mph 1.2 mph 29 % 0.00 in
13:22 96.2 °F 59.7 °F 29.86 in SSE 1.2 mph 1.2 mph 30 % 0.00 in
13:27 97.0 °F 60.4 °F 29.86 in NW 2.3 mph 2.3 mph 30 % 0.00 in
13:32 96.6 °F 56.1 °F 29.86 in Calm     26 % 0.00 in
13:37 96.7 °F 58.2 °F 29.86 in North 1.2 mph 1.2 mph 28 % 0.00 in
13:42 96.7 °F 58.2 °F 29.86 in WNW 3.5 mph 3.5 mph 28 % 0.00 in
13:47 96.3 °F 57.9 °F 29.86 in NW 2.3 mph 2.3 mph 28 % 0.00 in
13:52 96.1 °F 57.7 °F 29.85 in WNW 3.5 mph 3.5 mph 28 % 0.00 in
13:57 96.3 °F 57.9 °F 29.85 in NW 1.2 mph 1.2 mph 28 % 0.00 in
14:02 96.2 °F 57.8 °F 29.85 in NW 3.5 mph 3.5 mph 28 % 0.00 in
14:07 96.4 °F 57.0 °F 29.85 in WNW 3.5 mph 3.5 mph 27 % 0.00 in
14:12 96.6 °F 55.0 °F 29.85 in NW 3.0 mph 3.0 mph 25 % 0.00 in
14:17 96.8 °F 57.3 °F 29.85 in NW 3.5 mph 3.5 mph 27 % 0.00 in
14:22 97.0 °F 57.5 °F 29.85 in WNW 3.0 mph 3.0 mph 27 % 0.00 in
14:27 96.8 °F 58.3 °F 29.85 in WNW 3.5 mph 3.5 mph 28 % 0.00 in
14:32 97.0 °F 56.4 °F 29.85 in NW 3.5 mph 3.5 mph 26 % 0.00 in
14:37 97.2 °F 56.6 °F 29.85 in NNW 3.5 mph 3.5 mph 26 % 0.00 in
14:42 97.6 °F 56.9 °F 29.85 in NW 5.8 mph 5.8 mph 26 % 0.00 in
14:47 97.7 °F 57.0 °F 29.85 in WNW 2.3 mph 2.3 mph 26 % 0.00 in
14:52 97.9 °F 57.2 °F 29.85 in NNW 3.5 mph 3.5 mph 26 % 0.00 in
14:57 98.0 °F 57.3 °F 29.85 in NNW 5.0 mph 5.0 mph 26 % 0.00 in
15:02 98.0 °F 56.2 °F 29.84 in NNE 3.5 mph 3.5 mph 25 % 0.00 in
15:07 98.2 °F 58.5 °F 29.84 in NNW 4.6 mph 4.6 mph 27 % 0.00 in
15:12 98.3 °F 56.4 °F 29.84 in NW 3.5 mph 3.5 mph 25 % 0.00 in
15:17 98.4 °F 56.5 °F 29.84 in NW 3.0 mph 3.0 mph 25 % 0.00 in
15:22 98.5 °F 55.5 °F 29.83 in NW 3.5 mph 3.5 mph 24 % 0.00 in
15:27 98.9 °F 54.6 °F 29.83 in NW 3.5 mph 3.5 mph 23 % 0.00 in
15:32 99.1 °F 56.0 °F 29.83 in NW 3.5 mph 3.5 mph 24 % 0.00 in
15:34 99.1 °F 56.0 °F 29.83 in WNW 2.3 mph 2.3 mph 24 % 0.00 in
15:39 99.3 °F 55.0 °F 29.83 in North 4.0 mph 4.0 mph 23 % 0.00 in
15:44 99.3 °F 55.0 °F 29.83 in NNE 2.3 mph 2.3 mph 23 % 0.00 in
15:49 99.5 °F 55.1 °F 29.83 in NNW 3.0 mph 3.0 mph 23 % 0.00 in
15:54 99.8 °F 54.2 °F 29.83 in WSW 2.3 mph 2.3 mph 22 % 0.00 in
15:59 100.2 °F 53.2 °F 29.82 in WNW 6.0 mph 6.0 mph 21 % 0.00 in
16:04 99.8 °F 54.2 °F 29.82 in NW 3.5 mph 3.5 mph 22 % 0.00 in
16:09 100.0 °F 55.6 °F 29.82 in NW 3.5 mph 3.5 mph 23 % 0.00 in
16:14 100.2 °F 53.2 °F 29.82 in NW 2.3 mph 2.3 mph 21 % 0.00 in
16:19 100.5 °F 52.1 °F 29.82 in NW 6.9 mph 6.9 mph 20 % 0.00 in
16:24 100.6 °F 52.2 °F 29.82 in NW 5.8 mph 5.8 mph 20 % 0.00 in
16:29 100.4 °F 52.1 °F 29.81 in NNW 5.0 mph 5.0 mph 20 % 0.00 in
16:34 100.5 °F 50.8 °F 29.81 in WNW 4.6 mph 4.6 mph 19 % 0.00 in
16:39 100.8 °F 53.7 °F 29.81 in NW 4.6 mph 4.6 mph 21 % 0.00 in
16:44 100.6 °F 52.2 °F 29.81 in North 4.6 mph 4.6 mph 20 % 0.00 in
16:50 100.3 °F 53.3 °F 29.81 in NW 8.1 mph 8.1 mph 21 % 0.00 in
16:55 100.3 °F 53.3 °F 29.81 in West 3.0 mph 3.0 mph 21 % 0.00 in
17:04 100.4 °F 52.1 °F 29.81 in West 3.5 mph 3.5 mph 20 % 0.00 in
17:09 100.1 °F 53.1 °F 29.81 in WNW 3.5 mph 3.5 mph 21 % 0.00 in
17:14 100.0 °F 51.7 °F 29.81 in NW 3.5 mph 3.5 mph 20 % 0.00 in
17:19 99.9 °F 53.0 °F 29.81 in WNW 5.8 mph 5.8 mph 21 % 0.00 in
17:24 99.7 °F 52.8 °F 29.81 in WNW 4.6 mph 4.6 mph 21 % 0.00 in
17:30 99.7 °F 54.1 °F 29.81 in NE 4.6 mph 4.6 mph 22 % 0.00 in
17:35 99.6 °F 54.0 °F 29.81 in WNW 5.8 mph 5.8 mph 22 % 0.00 in
17:40 99.4 °F 55.1 °F 29.80 in WNW 4.6 mph 4.6 mph 23 % 0.00 in
17:45 99.2 °F 53.7 °F 29.80 in NW 5.8 mph 5.8 mph 22 % 0.00 in
17:50 99.2 °F 54.9 °F 29.80 in WNW 2.3 mph 2.3 mph 23 % 0.00 in
17:55 99.3 °F 53.8 °F 29.80 in WNW 3.5 mph 3.5 mph 22 % 0.00 in
18:00 99.5 °F 52.7 °F 29.80 in NW 4.6 mph 4.6 mph 21 % 0.00 in
18:05 99.0 °F 53.5 °F 29.80 in NNW 4.0 mph 4.0 mph 22 % 0.00 in
18:10 98.7 °F 52.0 °F 29.80 in NW 3.5 mph 3.5 mph 21 % 0.00 in
18:15 98.7 °F 55.6 °F 29.80 in NW 2.3 mph 2.3 mph 24 % 0.00 in
18:20 98.7 °F 52.0 °F 29.80 in NW 3.5 mph 3.5 mph 21 % 0.00 in
18:25 98.7 °F 52.0 °F 29.80 in North 5.8 mph 5.8 mph 21 % 0.00 in
18:30 98.4 °F 54.2 °F 29.80 in NW 3.5 mph 3.5 mph 23 % 0.00 in
18:35 98.4 °F 54.2 °F 29.80 in NW 3.5 mph 3.5 mph 23 % 0.00 in
18:40 98.4 °F 55.4 °F 29.80 in NW 3.5 mph 3.5 mph 24 % 0.00 in
18:45 98.1 °F 55.1 °F 29.80 in WNW 3.5 mph 3.5 mph 24 % 0.00 in
18:50 97.8 °F 53.7 °F 29.80 in NW 2.3 mph 2.3 mph 23 % 0.00 in
18:55 97.7 °F 55.9 °F 29.80 in WSW 4.0 mph 4.0 mph 25 % 0.00 in
19:00 97.1 °F 55.4 °F 29.80 in NW 2.3 mph 2.3 mph 25 % 0.00 in
19:05 96.2 °F 55.8 °F 29.80 in WNW 2.3 mph 2.3 mph 26 % 0.00 in
19:10 95.6 °F 56.3 °F 29.80 in NW 2.3 mph 2.3 mph 27 % 0.00 in
19:15 95.2 °F 54.9 °F 29.80 in North 4.6 mph 4.6 mph 26 % 0.00 in
19:20 94.8 °F 54.6 °F 29.80 in WNW 3.5 mph 3.5 mph 26 % 0.00 in
19:25 94.3 °F 56.2 °F 29.80 in NW 1.2 mph 1.2 mph 28 % 0.00 in
19:30 93.7 °F 54.7 °F 29.80 in NW 1.2 mph 1.2 mph 27 % 0.00 in
19:35 93.2 °F 55.2 °F 29.80 in NW 1.2 mph 1.2 mph 28 % 0.00 in
19:40 92.7 °F 54.8 °F 29.80 in NW 1.2 mph   28 % 0.00 in
19:45 92.1 °F 55.3 °F 29.80 in NW 1.2 mph 1.2 mph 29 % 0.00 in
19:50 91.5 °F 54.8 °F 29.80 in WNW 1.2 mph 1.2 mph 29 % 0.00 in
19:55 91.2 °F 54.5 °F 29.80 in NW 2.3 mph   29 % 0.00 in
20:00 91.0 °F 54.3 °F 29.80 in NW 2.3 mph 2.3 mph 29 % 0.00 in
20:02 90.9 °F 55.2 °F 29.80 in North 2.3 mph 2.3 mph 30 % 0.00 in
20:07 90.5 °F 54.8 °F 29.80 in NW 1.2 mph 1.2 mph 30 % 0.00 in
20:12 90.1 °F 54.5 °F 29.80 in NW 1.2 mph 1.2 mph 30 % 0.00 in
20:17 89.8 °F 54.2 °F 29.80 in NW 1.2 mph   30 % 0.00 in
20:22 89.5 °F 54.0 °F 29.81 in NW 1.2 mph 1.2 mph 30 % 0.00 in
20:27 89.5 °F 54.0 °F 29.81 in North 1.2 mph 1.2 mph 30 % 0.00 in
20:32 89.4 °F 53.9 °F 29.81 in Calm   0.3 mph 30 % 0.00 in
20:37 89.2 °F 54.6 °F 29.81 in NW 1.2 mph 1.2 mph 31 % 0.00 in
20:42 89.1 °F 54.5 °F 29.81 in Calm     31 % 0.00 in
20:47 88.8 °F 55.1 °F 29.81 in NW 1.2 mph 1.2 mph 32 % 0.00 in
20:52 88.7 °F 55.1 °F 29.81 in WNW 2.3 mph 2.3 mph 32 % 0.00 in
20:58 88.4 °F 54.8 °F 29.81 in NW 2.3 mph 2.3 mph 32 % 0.00 in
21:03 88.4 °F 54.8 °F 29.81 in NW 2.3 mph 2.3 mph 32 % 0.00 in
21:08 88.2 °F 54.6 °F 29.81 in NW 2.3 mph 2.3 mph 32 % 0.00 in
21:13 88.0 °F 54.4 °F 29.81 in NNW 3.5 mph 3.5 mph 32 % 0.00 in
21:18 88.1 °F 53.7 °F 29.81 in WNW 1.2 mph 1.2 mph 31 % 0.00 in
21:23 88.0 °F 53.6 °F 29.82 in NW 1.2 mph 1.2 mph 31 % 0.00 in
21:28 88.1 °F 52.8 °F 29.82 in NW 3.5 mph 3.5 mph 30 % 0.00 in
21:33 88.2 °F 52.9 °F 29.82 in NW 1.2 mph 1.2 mph 30 % 0.00 in
21:38 87.9 °F 53.5 °F 29.82 in Calm     31 % 0.00 in
21:43 87.3 °F 53.0 °F 29.82 in NW 1.2 mph 1.2 mph 31 % 0.00 in
21:48 87.2 °F 52.9 °F 29.82 in NNW 2.3 mph 2.3 mph 31 % 0.00 in
21:53 87.1 °F 52.8 °F 29.83 in NNW 3.5 mph 3.5 mph 31 % 0.00 in
21:58 87.1 °F 53.7 °F 29.83 in Calm     32 % 0.00 in
22:03 86.4 °F 53.1 °F 29.83 in WNW 1.0 mph   32 % 0.00 in
22:08 85.5 °F 54.7 °F 29.83 in Calm     35 % 0.00 in
22:13 84.9 °F 53.4 °F 29.83 in Calm     34 % 0.00 in
22:18 84.3 °F 55.2 °F 29.83 in Calm     37 % 0.00 in
22:23 83.4 °F 54.4 °F 29.83 in Calm     37 % 0.00 in
22:28 82.6 °F 54.4 °F 29.83 in Calm     38 % 0.00 in
22:33 81.9 °F 55.9 °F 29.83 in Calm     41 % 0.00 in
22:38 81.1 °F 55.2 °F 29.83 in Calm     41 % 0.00 in
22:43 80.5 °F 55.9 °F 29.83 in Calm     43 % 0.00 in
22:48 79.9 °F 56.0 °F 29.83 in Calm     44 % 0.00 in
22:53 79.3 °F 57.9 °F 29.83 in Calm     48 % 0.00 in
22:58 78.7 °F 57.4 °F 29.83 in Calm     48 % 0.00 in
23:03 78.3 °F 57.6 °F 29.83 in Calm     49 % 0.00 in
23:08 78.1 °F 57.4 °F 29.83 in Calm     49 % 0.00 in
23:13 77.8 °F 56.0 °F 29.83 in Calm     47 % 0.00 in
23:18 77.6 °F 57.5 °F 29.83 in Calm     50 % 0.00 in
23:23 77.2 °F 57.7 °F 29.83 in Calm     51 % 0.00 in
23:29 76.8 °F 57.8 °F 29.83 in Calm     52 % 0.00 in
23:34 76.4 °F 56.9 °F 29.83 in Calm     51 % 0.00 in
23:39 76.0 °F 56.6 °F 29.83 in Calm     51 % 0.00 in
23:44 75.7 °F 57.9 °F 29.84 in Calm     54 % 0.00 in
23:49 75.4 °F 57.1 °F 29.84 in Calm     53 % 0.00 in
23:54 75.1 °F 57.3 °F 29.84 in WNW 1.2 mph 1.2 mph 54 % 0.00 in
23:59 74.8 °F 57.5 °F 29.84 in Calm     55 % 0.00 in
Park Place, Exeter, Tulare County, California, USA
Compliments of Weather Underground - 2.75 mb